Main page
METAR-TAF:

METAR-TAF

Airports :

Çiğli Air Base

Izmir, Turkey

latitude: 38-30N, longitude: 027-01E, elevation: 5 m

METAR: missing

Time: 00:26 (21:26 UTC)

Forecast

The report was made 1 hour and 46 minutes ago, at 19:40 UTC
Forecast valid from 18 at 21 UTC to 19 at 06 UTC
Wind 2 kt from variable directions
Visibility 10 km or more
no clouds below 1500 m and no cumulonimbus
Probability 30% :
Temporary
from 19 at 03 UTC to 19 at 06 UTC
Visibility: 4000 m
mist

TAF: LTBL 181940Z 1821/1906 VRB02KT CAVOK PROB30 TEMPO 1903/1906 4000 BR

Weather observations and forecasts of more than 4000 airports (METAR and TAF reports).

The available stations are represented by yellow and red dots on the map.

Hover mouse over dot to see the name of the station.

Then click to see weather observations and forecasts.

To change the map : click on the green buttons with a black cross to zoom in, on the green button with a dash to zoom out, or on the green arrows for adjacent maps.


METAR-TAF: